Time;durP1;ratioP1;P1;durP2;ratioP2;P2;SDS_P1;SDS_P2;PMS_P1;PMS_P2;Temp;Humidity;BMP_temperature;BMP_pressure;BME280_temperature;BME280_humidity;BME280_pressure;Samples;Min_cycle;Max_cycle;Signal;HPM_P1;HPM_P2
2022/06/26 00:00:14;;;;;;;35.22;22.63;;;17.60;99.90;;;;;;4942646;28;20043;-69
2022/06/26 00:02:39;;;;;;;34.05;20.52;;;17.60;99.90;;;;;;4956689;28;20066;-69
2022/06/26 00:05:07;;;;;;;36.17;20.73;;;17.60;99.90;;;;;;4953837;28;20038;-69
2022/06/26 00:07:33;;;;;;;38.40;21.48;;;17.60;99.90;;;;;;4963118;28;20039;-68
2022/06/26 00:10:00;;;;;;;35.05;20.50;;;17.60;99.90;;;;;;4953623;28;20054;-69
2022/06/26 00:12:25;;;;;;;37.13;20.20;;;17.50;99.90;;;;;;4987706;28;20533;-68
2022/06/26 00:14:51;;;;;;;33.45;20.15;;;17.50;99.90;;;;;;4957110;28;20037;-68
2022/06/26 00:17:17;;;;;;;35.45;21.23;;;17.40;99.90;;;;;;4942266;28;20039;-68
2022/06/26 00:19:42;;;;;;;40.70;22.02;;;17.50;99.90;;;;;;4952920;28;20109;-68
2022/06/26 00:22:08;;;;;;;38.50;22.58;;;17.40;99.90;;;;;;4959183;28;20070;-68
2022/06/26 00:24:34;;;;;;;39.65;21.40;;;17.40;99.90;;;;;;4940590;28;20043;-66
2022/06/26 00:27:02;;;;;;;51.83;26.10;;;17.30;99.90;;;;;;4954961;28;20038;-70
2022/06/26 00:29:30;;;;;;;56.97;30.10;;;17.20;99.90;;;;;;4943894;28;20035;-67
2022/06/26 00:31:55;;;;;;;55.15;32.55;;;17.30;99.90;;;;;;4951494;28;20102;-68
2022/06/26 00:34:21;;;;;;;69.70;30.10;;;17.30;99.90;;;;;;4958184;28;20039;-67
2022/06/26 00:36:46;;;;;;;61.97;32.78;;;17.30;99.90;;;;;;4957164;28;20058;-70
2022/06/26 00:39:12;;;;;;;64.90;33.10;;;17.40;99.90;;;;;;4957693;28;20545;-69
2022/06/26 00:41:38;;;;;;;63.75;32.72;;;17.50;99.90;;;;;;4956130;28;20082;-67
2022/06/26 00:44:17;;;;;;;65.93;32.80;;;17.50;99.90;;;;;;4954511;28;20050;-68
2022/06/26 00:46:44;;;;;;;62.70;32.42;;;17.60;99.90;;;;;;4960444;28;20046;-70
2022/06/26 00:49:10;;;;;;;64.05;32.50;;;17.60;99.90;;;;;;4941491;28;20081;-67
2022/06/26 00:51:40;;;;;;;59.22;31.42;;;17.70;99.90;;;;;;4984976;28;20039;-68
2022/06/26 00:54:07;;;;;;;66.68;31.52;;;17.70;99.90;;;;;;4949101;28;20090;-67
2022/06/26 00:56:34;;;;;;;64.28;31.92;;;17.60;99.90;;;;;;4954886;28;20043;-69
2022/06/26 00:59:01;;;;;;;60.85;29.58;;;17.70;99.90;;;;;;4956036;28;20026;-69
2022/06/26 01:01:26;;;;;;;61.50;30.48;;;17.60;99.90;;;;;;4965695;28;20042;-70
2022/06/26 01:03:52;;;;;;;59.65;28.83;;;17.70;99.90;;;;;;4956392;28;20035;-71
2022/06/26 01:06:18;;;;;;;60.95;30.20;;;17.70;99.90;;;;;;4950539;28;20038;-70
2022/06/26 01:08:45;;;;;;;57.70;31.27;;;17.70;99.90;;;;;;4976652;28;20046;-68
2022/06/26 01:11:20;;;;;;;58.33;29.25;;;17.60;99.90;;;;;;4956276;28;20035;-70
2022/06/26 01:13:52;;;;;;;68.07;28.88;;;17.60;99.90;;;;;;4960503;28;20124;-69
2022/06/26 01:16:19;;;;;;;57.17;29.50;;;17.70;99.90;;;;;;4953521;28;20087;-68
2022/06/26 01:18:48;;;;;;;57.67;29.42;;;17.70;99.90;;;;;;4952349;28;20078;-68
2022/06/26 01:21:18;;;;;;;55.50;27.25;;;17.60;99.90;;;;;;4953484;28;20093;-68
2022/06/26 01:23:45;;;;;;;50.30;26.73;;;17.60;99.90;;;;;;4959032;28;20046;-69
2022/06/26 01:26:11;;;;;;;55.80;26.90;;;17.70;99.90;;;;;;4957836;28;20042;-69
2022/06/26 01:28:37;;;;;;;51.63;26.67;;;17.60;99.90;;;;;;4955820;28;20045;-69
2022/06/26 01:31:02;;;;;;;46.78;25.33;;;17.70;99.90;;;;;;4950227;28;20111;-69
2022/06/26 01:33:28;;;;;;;47.47;26.42;;;17.60;99.90;;;;;;4954649;28;20039;-68
2022/06/26 01:35:54;;;;;;;48.35;26.40;;;17.70;99.90;;;;;;4955952;28;20240;-68
2022/06/26 01:38:21;;;;;;;49.88;26.23;;;17.70;99.90;;;;;;4955735;28;20031;-70
2022/06/26 01:40:48;;;;;;;51.25;26.92;;;17.60;99.90;;;;;;4952501;28;20050;-68
2022/06/26 01:43:17;;;;;;;58.38;26.58;;;17.60;99.90;;;;;;4959772;28;20042;-69
2022/06/26 01:45:45;;;;;;;51.65;25.95;;;17.60;99.90;;;;;;4957215;28;20065;-67
2022/06/26 01:48:10;;;;;;;49.08;25.50;;;17.70;99.90;;;;;;4948808;28;20093;-68
2022/06/26 01:50:36;;;;;;;48.83;25.45;;;17.50;99.90;;;;;;4938186;28;20047;-67
2022/06/26 01:53:02;;;;;;;44.80;24.42;;;17.60;99.90;;;;;;4960697;28;20066;-67
2022/06/26 01:55:28;;;;;;;43.03;24.63;;;17.60;99.90;;;;;;4952259;28;20548;-66
2022/06/26 01:57:54;;;;;;;48.63;23.67;;;17.50;99.90;;;;;;4958309;28;20046;-66
2022/06/26 02:00:20;;;;;;;46.35;25.50;;;17.50;99.90;;;;;;4957147;28;20042;-66
2022/06/26 02:02:46;;;;;;;43.05;23.67;;;17.40;99.90;;;;;;4951058;28;20050;-65
2022/06/26 02:05:11;;;;;;;46.88;25.63;;;17.50;99.90;;;;;;4948941;28;20038;-65
2022/06/26 02:07:38;;;;;;;46.38;24.98;;;17.40;99.90;;;;;;4937932;28;20122;-65
2022/06/26 02:15:33;;;;;;;53.20;25.00;;;17.50;99.90;;;;;;4963111;28;20545;-65
2022/06/26 02:17:58;;;;;;;44.70;24.02;;;17.50;99.90;;;;;;4966047;28;20035;-65
2022/06/26 02:20:24;;;;;;;42.10;22.92;;;17.40;99.90;;;;;;4966038;28;20066;-66
2022/06/26 02:22:49;;;;;;;33.08;16.58;;;17.30;99.90;;;;;;4947027;28;20050;-65
2022/06/26 02:25:15;;;;;;;29.30;15.20;;;17.40;99.90;;;;;;4958462;28;20034;-65
2022/06/26 02:27:41;;;;;;;29.08;13.65;;;17.30;99.90;;;;;;4957002;28;20462;-65
2022/06/26 02:30:07;;;;;;;21.42;10.80;;;17.20;99.90;;;;;;4958043;28;20065;-66
2022/06/26 02:32:33;;;;;;;17.60;10.23;;;17.20;99.90;;;;;;4945704;28;20057;-65
2022/06/26 02:34:58;;;;;;;22.27;10.68;;;17.00;99.90;;;;;;4963781;28;20474;-65
2022/06/26 02:37:24;;;;;;;20.67;9.90;;;17.10;99.90;;;;;;4954557;28;20039;-65
2022/06/26 02:39:50;;;;;;;18.02;9.85;;;17.10;99.90;;;;;;4954941;28;20316;-65
2022/06/26 02:42:15;;;;;;;15.45;9.23;;;17.00;99.90;;;;;;4957054;28;20046;-65
2022/06/26 02:44:41;;;;;;;15.30;9.02;;;17.10;99.90;;;;;;4958031;28;20035;-64
2022/06/26 02:47:06;;;;;;;17.33;9.38;;;16.90;99.90;;;;;;4961355;28;20034;-64
2022/06/26 02:49:32;;;;;;;17.25;8.52;;;16.90;99.90;;;;;;4957993;28;20331;-65
2022/06/26 02:51:58;;;;;;;12.32;7.82;;;16.90;99.90;;;;;;4959785;28;20565;-64
2022/06/26 02:54:23;;;;;;;15.98;7.18;;;16.80;99.90;;;;;;4939191;28;20039;-65
2022/06/26 02:56:49;;;;;;;11.10;7.32;;;16.70;99.90;;;;;;4955141;28;20046;-65
2022/06/26 02:59:14;;;;;;;12.48;7.40;;;16.70;99.90;;;;;;4956965;28;20075;-67
2022/06/26 03:01:40;;;;;;;16.98;7.75;;;16.70;99.90;;;;;;4962527;28;20551;-66
2022/06/26 03:04:06;;;;;;;15.80;7.55;;;16.50;99.90;;;;;;4961892;28;20042;-65
2022/06/26 03:06:31;;;;;;;13.48;7.18;;;16.50;99.90;;;;;;4962024;28;20133;-65
2022/06/26 03:08:57;;;;;;;15.10;8.63;;;16.50;99.90;;;;;;4956504;28;20039;-65
2022/06/26 03:11:23;;;;;;;15.15;8.60;;;16.40;99.90;;;;;;4958907;28;20055;-65
2022/06/26 03:13:48;;;;;;;14.65;8.68;;;16.50;99.90;;;;;;4962351;28;20031;-66
2022/06/26 03:16:14;;;;;;;15.73;8.50;;;16.40;99.90;;;;;;4956829;28;20481;-65
2022/06/26 03:18:39;;;;;;;16.63;8.40;;;16.40;99.90;;;;;;4961541;28;20066;-66
2022/06/26 03:21:05;;;;;;;12.80;7.82;;;16.40;99.90;;;;;;4965254;28;20034;-66
2022/06/26 03:26:15;;;;;;;11.40;7.78;;;16.40;99.90;;;;;;4956852;28;20053;-65
2022/06/26 03:28:41;;;;;;;14.07;8.00;;;16.20;99.90;;;;;;4953463;28;20470;-65
2022/06/26 03:31:06;;;;;;;15.60;7.63;;;16.20;99.90;;;;;;4963139;28;20470;-64
2022/06/26 03:33:32;;;;;;;12.77;7.85;;;16.20;99.90;;;;;;4956136;28;20410;-63
2022/06/26 03:35:58;;;;;;;12.10;8.00;;;16.30;99.90;;;;;;4959991;28;20085;-65
2022/06/26 03:38:24;;;;;;;12.48;7.55;;;16.20;99.90;;;;;;4969467;28;20109;-65
2022/06/26 03:40:49;;;;;;;15.45;7.90;;;16.30;99.90;;;;;;4966436;28;20030;-64
2022/06/26 03:43:15;;;;;;;13.13;8.15;;;16.20;99.90;;;;;;4965146;28;20039;-66
2022/06/26 03:45:41;;;;;;;14.75;8.45;;;16.30;99.90;;;;;;4955999;28;20058;-65
2022/06/26 03:48:07;;;;;;;19.38;8.95;;;16.20;99.90;;;;;;4959964;28;20058;-65
2022/06/26 03:50:33;;;;;;;14.00;8.70;;;16.30;99.90;;;;;;4951190;28;20050;-64
2022/06/26 03:52:58;;;;;;;14.60;8.45;;;16.30;99.90;;;;;;4964312;28;20112;-64
2022/06/26 03:55:24;;;;;;;14.38;8.50;;;16.30;99.90;;;;;;4958935;28;20039;-64
2022/06/26 03:57:50;;;;;;;17.75;9.15;;;16.30;99.90;;;;;;4968434;28;20489;-65
2022/06/26 04:00:17;;;;;;;13.48;9.02;;;16.20;99.90;;;;;;4970427;28;20085;-64
2022/06/26 04:02:43;;;;;;;20.73;9.63;;;16.20;99.90;;;;;;4963604;28;20053;-65
2022/06/26 04:05:15;;;;;;;18.73;10.15;;;16.20;99.90;;;;;;4963912;28;20448;-65
2022/06/26 04:07:41;;;;;;;19.20;10.82;;;16.20;99.90;;;;;;4963659;28;20130;-66
2022/06/26 04:10:07;;;;;;;17.15;10.30;;;16.30;99.90;;;;;;4960350;28;20117;-65
2022/06/26 04:12:33;;;;;;;21.98;11.05;;;16.20;99.90;;;;;;4965927;28;20039;-65
2022/06/26 04:14:58;;;;;;;20.73;12.10;;;16.20;99.90;;;;;;4952878;28;20039;-68
2022/06/26 04:17:24;;;;;;;20.60;12.25;;;16.20;99.90;;;;;;4952008;28;20332;-69
2022/06/26 04:19:49;;;;;;;24.63;12.95;;;16.20;99.90;;;;;;4959226;28;20478;-67
2022/06/26 04:22:15;;;;;;;27.10;12.68;;;16.20;99.90;;;;;;4956475;28;20300;-66
2022/06/26 04:24:41;;;;;;;22.55;12.35;;;16.30;99.90;;;;;;4960074;28;20077;-66
2022/06/26 04:27:07;;;;;;;21.75;12.35;;;16.40;99.90;;;;;;4964273;28;20039;-66
2022/06/26 04:29:32;;;;;;;24.00;12.48;;;16.50;99.90;;;;;;4967588;28;20049;-67
2022/06/26 04:31:58;;;;;;;23.55;12.48;;;16.50;99.90;;;;;;4958510;28;20030;-66
2022/06/26 04:34:23;;;;;;;21.58;10.65;;;16.50;99.90;;;;;;4957704;28;20057;-67
2022/06/26 04:36:49;;;;;;;20.40;11.02;;;16.60;99.90;;;;;;4960749;28;20035;-68
2022/06/26 04:39:15;;;;;;;20.15;11.05;;;16.70;99.90;;;;;;4960570;28;20497;-67
2022/06/26 04:41:41;;;;;;;18.10;11.57;;;16.70;99.90;;;;;;4959443;28;20046;-67
2022/06/26 04:44:11;;;;;;;21.63;12.70;;;16.70;99.90;;;;;;4959609;28;20085;-67
2022/06/26 04:46:38;;;;;;;29.65;14.65;;;16.80;99.90;;;;;;4950329;28;20045;-69
2022/06/26 04:49:05;;;;;;;28.27;15.98;;;16.80;99.90;;;;;;4956336;28;20119;-66
2022/06/26 04:51:31;;;;;;;33.47;16.35;;;16.80;99.90;;;;;;4953936;28;20050;-69
2022/06/26 04:53:56;;;;;;;36.65;19.70;;;16.80;99.90;;;;;;4954617;28;20513;-70
2022/06/26 04:56:22;;;;;;;40.30;21.10;;;16.80;99.90;;;;;;4931260;28;20115;-68
2022/06/26 04:58:48;;;;;;;41.13;22.48;;;16.80;99.90;;;;;;4946178;28;20477;-70
2022/06/26 05:01:15;;;;;;;42.30;21.90;;;16.80;99.90;;;;;;4960206;28;20130;-70
2022/06/26 05:03:40;;;;;;;43.03;21.73;;;17.00;99.90;;;;;;4953523;28;20145;-69
2022/06/26 05:06:06;;;;;;;39.08;20.23;;;17.00;99.90;;;;;;4952680;28;20137;-69
2022/06/26 05:08:32;;;;;;;36.42;20.15;;;17.10;99.90;;;;;;4948388;28;20053;-69
2022/06/26 05:10:57;;;;;;;38.25;19.48;;;17.00;99.90;;;;;;4955262;28;20042;-69
2022/06/26 05:13:23;;;;;;;43.63;22.17;;;17.00;99.90;;;;;;4953833;28;20039;-68
2022/06/26 05:15:48;;;;;;;42.67;21.35;;;17.00;99.90;;;;;;4954396;28;20038;-69
2022/06/26 05:18:14;;;;;;;42.53;21.65;;;17.00;99.90;;;;;;4953050;28;20062;-68
2022/06/26 05:20:40;;;;;;;37.40;20.55;;;16.90;99.90;;;;;;4953881;28;20081;-70
2022/06/26 05:23:07;;;;;;;38.60;21.10;;;16.90;99.90;;;;;;4950072;28;20070;-68
2022/06/26 05:25:33;;;;;;;36.60;20.08;;;16.90;99.90;;;;;;4961163;28;20541;-68
2022/06/26 05:27:59;;;;;;;37.17;19.88;;;17.00;99.90;;;;;;4956913;28;20521;-69
2022/06/26 05:30:25;;;;;;;36.03;20.55;;;17.00;99.90;;;;;;4956360;28;20050;-69
2022/06/26 05:32:50;;;;;;;39.22;20.05;;;16.90;99.90;;;;;;4963244;28;20133;-69
2022/06/26 05:35:16;;;;;;;40.40;21.92;;;16.90;99.90;;;;;;4964621;28;20038;-69
2022/06/26 05:37:42;;;;;;;44.63;22.08;;;17.00;99.90;;;;;;4960745;28;20065;-70
2022/06/26 05:40:08;;;;;;;44.05;23.10;;;17.00;99.90;;;;;;4959102;28;20070;-69
2022/06/26 05:42:33;;;;;;;46.65;23.33;;;17.00;99.90;;;;;;4960397;28;20042;-68
2022/06/26 05:44:59;;;;;;;45.38;23.42;;;17.10;99.90;;;;;;4960532;28;20042;-69
2022/06/26 05:47:24;;;;;;;49.22;24.25;;;17.00;99.90;;;;;;4956928;28;20074;-68
2022/06/26 05:49:50;;;;;;;46.97;23.88;;;17.00;99.90;;;;;;4955020;28;20235;-68
2022/06/26 05:52:15;;;;;;;49.70;24.80;;;17.10;99.90;;;;;;4959416;28;20050;-69
2022/06/26 05:54:41;;;;;;;47.55;25.55;;;17.00;99.90;;;;;;4955202;28;20482;-70
2022/06/26 05:57:07;;;;;;;50.42;24.75;;;17.10;99.90;;;;;;4960857;28;20035;-69
2022/06/26 05:59:32;;;;;;;47.70;25.90;;;17.20;99.90;;;;;;4957379;28;20078;-68
2022/06/26 06:01:58;;;;;;;48.05;25.05;;;17.20;99.90;;;;;;4957832;28;20714;-69
2022/06/26 06:04:23;;;;;;;52.08;25.58;;;17.20;99.90;;;;;;4965382;28;20034;-68
2022/06/26 06:06:49;;;;;;;48.10;25.73;;;17.20;99.90;;;;;;4964958;28;20046;-69
2022/06/26 06:09:15;;;;;;;50.35;26.23;;;17.30;99.90;;;;;;4963108;28;20038;-70
2022/06/26 06:11:40;;;;;;;46.08;25.50;;;17.30;99.90;;;;;;4959728;28;20050;-70
2022/06/26 06:14:06;;;;;;;48.20;25.35;;;17.20;99.90;;;;;;4959594;28;20070;-70
2022/06/26 06:16:32;;;;;;;48.80;26.58;;;17.30;99.90;;;;;;4957344;28;20034;-70
2022/06/26 06:18:57;;;;;;;49.65;25.95;;;17.20;99.90;;;;;;4960099;28;20042;-70
2022/06/26 06:21:23;;;;;;;52.05;26.38;;;17.20;99.90;;;;;;4956529;28;20034;-69
2022/06/26 06:23:48;;;;;;;52.38;26.05;;;17.30;99.90;;;;;;4958752;28;20042;-68
2022/06/26 06:26:15;;;;;;;49.72;25.80;;;17.20;99.90;;;;;;4938723;28;20046;-67
2022/06/26 06:28:41;;;;;;;51.55;26.17;;;17.20;99.90;;;;;;4960525;28;20049;-68
2022/06/26 06:31:07;;;;;;;51.35;26.48;;;17.00;99.90;;;;;;4953582;28;20026;-70
2022/06/26 06:33:32;;;;;;;56.88;27.67;;;17.00;99.90;;;;;;4957633;28;20482;-69
2022/06/26 06:35:58;;;;;;;55.30;27.00;;;17.00;99.90;;;;;;4960293;28;20041;-70
2022/06/26 06:38:25;;;;;;;50.10;25.75;;;17.00;99.90;;;;;;4959994;28;20499;-70
2022/06/26 06:40:51;;;;;;;49.55;25.42;;;17.00;99.90;;;;;;4961457;28;20038;-70
2022/06/26 06:43:17;;;;;;;52.28;26.67;;;17.10;99.90;;;;;;4958553;28;20777;-68
2022/06/26 06:45:43;;;;;;;57.00;26.23;;;17.20;99.90;;;;;;4961809;28;20045;-70
2022/06/26 06:48:08;;;;;;;51.92;27.38;;;17.20;99.90;;;;;;4958229;28;20061;-70
2022/06/26 06:50:35;;;;;;;51.20;24.42;;;17.30;99.90;;;;;;4960931;28;20133;-70
2022/06/26 06:53:01;;;;;;;52.10;26.67;;;17.30;99.90;;;;;;4961372;28;20043;-70
2022/06/26 06:55:26;;;;;;;58.17;26.02;;;17.30;99.90;;;;;;4958752;28;20038;-71
2022/06/26 06:57:52;;;;;;;58.38;26.25;;;17.30;99.90;;;;;;4967252;28;20474;-70
2022/06/26 07:00:18;;;;;;;55.20;26.45;;;17.40;99.90;;;;;;4963110;28;20039;-70
2022/06/26 07:02:43;;;;;;;57.53;25.55;;;17.40;99.90;;;;;;4963532;28;20050;-69
2022/06/26 07:05:09;;;;;;;55.35;25.15;;;17.60;99.90;;;;;;4963930;28;20035;-69
2022/06/26 07:07:36;;;;;;;50.78;24.85;;;17.80;99.90;;;;;;4965060;28;20059;-69
2022/06/26 07:10:02;;;;;;;57.25;26.60;;;18.00;99.90;;;;;;4961066;28;20429;-68
2022/06/26 07:12:28;;;;;;;56.35;25.23;;;18.20;99.90;;;;;;4965026;28;20058;-69
2022/06/26 07:14:54;;;;;;;50.55;25.55;;;18.40;99.90;;;;;;4954393;28;20039;-68
2022/06/26 07:17:21;;;;;;;50.97;25.55;;;18.50;99.90;;;;;;4962844;28;20038;-70
2022/06/26 07:19:47;;;;;;;55.30;27.08;;;18.40;99.90;;;;;;4959523;28;20082;-68
2022/06/26 07:22:13;;;;;;;49.55;27.17;;;18.30;99.90;;;;;;4966296;28;20434;-67
2022/06/26 07:24:39;;;;;;;52.97;26.63;;;18.40;99.90;;;;;;4960228;28;20129;-69
2022/06/26 07:27:05;;;;;;;51.83;27.48;;;18.60;99.90;;;;;;4963460;28;20049;-68
2022/06/26 07:29:31;;;;;;;47.92;26.73;;;18.70;99.90;;;;;;4957061;28;20046;-68
2022/06/26 07:31:57;;;;;;;49.90;26.35;;;18.70;99.90;;;;;;4950833;28;20043;-68
2022/06/26 07:34:24;;;;;;;46.70;25.23;;;18.60;99.90;;;;;;4961292;28;20031;-68
2022/06/26 07:36:50;;;;;;;45.72;26.15;;;18.60;99.90;;;;;;4959295;28;20671;-68
2022/06/26 07:39:19;;;;;;;43.25;25.27;;;18.60;99.90;;;;;;4955627;28;20421;-68
2022/06/26 07:41:45;;;;;;;46.00;25.25;;;18.60;99.90;;;;;;4959117;28;20043;-69
2022/06/26 07:44:12;;;;;;;48.72;26.73;;;18.80;99.90;;;;;;4960700;28;20061;-69
2022/06/26 07:46:38;;;;;;;51.10;28.25;;;19.00;99.90;;;;;;4947377;28;20057;-68
2022/06/26 07:49:05;;;;;;;51.42;28.40;;;19.00;99.90;;;;;;4964543;28;20393;-67
2022/06/26 07:51:32;;;;;;;46.17;26.38;;;19.00;99.90;;;;;;4955304;28;20089;-69
2022/06/26 07:53:58;;;;;;;47.42;26.20;;;18.90;99.90;;;;;;4962874;28;20044;-68
2022/06/26 07:56:25;;;;;;;41.20;25.80;;;18.80;99.90;;;;;;4960009;28;20121;-68
2022/06/26 07:58:52;;;;;;;40.50;24.38;;;18.70;99.90;;;;;;4962842;28;20069;-67
2022/06/26 08:01:18;;;;;;;34.67;21.20;;;18.60;99.90;;;;;;4967032;28;20034;-68
2022/06/26 08:03:44;;;;;;;35.08;21.23;;;18.50;99.90;;;;;;4959153;28;20552;-67
2022/06/26 08:06:10;;;;;;;38.92;20.98;;;18.40;99.90;;;;;;4980445;28;20150;-67
2022/06/26 08:08:37;;;;;;;31.30;21.00;;;18.40;99.90;;;;;;4951243;28;20405;-67
2022/06/26 08:11:03;;;;;;;36.15;21.95;;;18.30;99.90;;;;;;4958668;28;20089;-68
2022/06/26 08:13:29;;;;;;;34.08;19.40;;;18.40;99.90;;;;;;4962696;28;20238;-68
2022/06/26 08:15:55;;;;;;;30.13;17.55;;;18.60;99.90;;;;;;4955358;28;20046;-68
2022/06/26 08:18:21;;;;;;;19.10;11.27;;;18.90;99.90;;;;;;4962186;28;20038;-67
2022/06/26 08:20:46;;;;;;;27.67;14.70;;;19.10;99.90;;;;;;4960551;28;20177;-68
2022/06/26 08:23:12;;;;;;;25.95;14.50;;;19.20;99.90;;;;;;4977674;28;20467;-68
2022/06/26 08:25:38;;;;;;;28.58;16.77;;;19.30;99.90;;;;;;4963488;28;21395;-69
2022/06/26 08:28:04;;;;;;;33.88;17.33;;;19.50;99.90;;;;;;4961767;28;20045;-67
2022/06/26 08:30:30;;;;;;;25.52;15.93;;;19.60;99.90;;;;;;4968093;28;20394;-68
2022/06/26 08:32:58;;;;;;;30.30;17.48;;;19.60;99.90;;;;;;4942518;28;20051;-68
2022/06/26 08:35:26;;;;;;;27.73;15.32;;;19.80;99.90;;;;;;4973674;28;20075;-68
2022/06/26 08:37:51;;;;;;;25.38;11.77;;;19.90;99.90;;;;;;4963307;28;20046;-68
2022/06/26 08:40:17;;;;;;;21.00;13.48;;;19.70;99.90;;;;;;4959718;28;20405;-68
2022/06/26 08:42:49;;;;;;;27.00;13.65;;;19.60;99.90;;;;;;4957509;28;20042;-68
2022/06/26 08:45:17;;;;;;;19.75;12.60;;;19.70;99.90;;;;;;4961995;28;20062;-68
2022/06/26 08:47:48;;;;;;;16.65;9.20;;;19.80;99.90;;;;;;4961467;28;20121;-68
2022/06/26 08:50:13;;;;;;;21.77;10.40;;;19.80;99.90;;;;;;4957834;28;20091;-68
2022/06/26 08:52:42;;;;;;;14.40;9.68;;;19.90;99.90;;;;;;4980711;28;20044;-68
2022/06/26 08:55:08;;;;;;;18.15;10.57;;;19.90;99.90;;;;;;4942366;28;20085;-68
2022/06/26 08:57:34;;;;;;;19.58;10.70;;;20.00;99.90;;;;;;4952338;28;20039;-68
2022/06/26 09:00:00;;;;;;;13.93;9.35;;;20.20;99.90;;;;;;4953052;28;20042;-67
2022/06/26 09:02:26;;;;;;;18.58;9.88;;;20.30;99.90;;;;;;4949303;28;20047;-68
2022/06/26 09:04:52;;;;;;;16.00;8.70;;;20.40;99.90;;;;;;4945692;28;20050;-68
2022/06/26 09:07:18;;;;;;;16.58;9.40;;;20.30;99.90;;;;;;4954354;28;20057;-68
2022/06/26 09:09:44;;;;;;;13.45;7.82;;;20.40;99.90;;;;;;4963943;28;20640;-66
2022/06/26 09:12:10;;;;;;;17.77;9.27;;;20.50;99.90;;;;;;4961092;28;20043;-67
2022/06/26 09:14:35;;;;;;;18.75;10.48;;;20.50;99.90;;;;;;4961841;28;20061;-68
2022/06/26 09:17:02;;;;;;;15.82;10.70;;;20.50;99.90;;;;;;4955547;28;20366;-68
2022/06/26 09:19:36;;;;;;;15.38;8.80;;;20.40;99.90;;;;;;4964353;28;20042;-66
2022/06/26 09:22:13;;;;;;;15.63;9.57;;;20.10;99.90;;;;;;4954998;28;20077;-67
2022/06/26 09:24:40;;;;;;;17.30;8.60;;;20.00;99.90;;;;;;4984170;28;20051;-68
2022/06/26 09:27:10;;;;;;;14.35;7.32;;;20.00;99.90;;;;;;4969592;28;20030;-67
2022/06/26 09:29:38;;;;;;;14.18;7.28;;;19.90;99.90;;;;;;4960875;28;20038;-66
2022/06/26 09:32:12;;;;;;;16.52;8.80;;;19.70;99.90;;;;;;4948404;28;20042;-68
2022/06/26 09:34:52;;;;;;;19.20;9.07;;;19.70;99.90;;;;;;4976081;28;20389;-69
2022/06/26 09:37:19;;;;;;;17.88;9.30;;;19.90;99.90;;;;;;4955979;28;20034;-67
2022/06/26 09:39:46;;;;;;;19.60;9.70;;;20.10;99.90;;;;;;4958564;28;20050;-69
2022/06/26 09:42:19;;;;;;;20.05;8.63;;;20.20;99.90;;;;;;4972464;28;20076;-69
2022/06/26 09:44:50;;;;;;;18.33;9.98;;;20.20;99.90;;;;;;4974721;28;20044;-68
2022/06/26 09:47:35;;;;;;;23.13;10.43;;;20.20;99.90;;;;;;4954653;28;20051;-69
2022/06/26 09:50:04;;;;;;;15.40;8.18;;;20.20;99.90;;;;;;4956245;28;20043;-67
2022/06/26 09:52:31;;;;;;;16.02;8.88;;;20.20;99.90;;;;;;4955815;28;20633;-69
2022/06/26 09:54:59;;;;;;;15.55;8.68;;;20.30;99.90;;;;;;4952193;28;20074;-68
2022/06/26 09:57:26;;;;;;;15.32;8.57;;;20.30;99.90;;;;;;4956791;28;20082;-68
2022/06/26 09:59:52;;;;;;;19.35;9.95;;;20.30;99.90;;;;;;4944194;28;20397;-68
2022/06/26 10:07:50;;;;;;;18.85;10.75;;;20.50;99.90;;;;;;4956583;28;20488;-69
2022/06/26 10:10:19;;;;;;;20.23;11.02;;;20.50;99.90;;;;;;4957373;28;20043;-69
2022/06/26 10:12:47;;;;;;;15.65;10.43;;;20.50;99.90;;;;;;4957221;28;20055;-68
2022/06/26 10:15:16;;;;;;;20.10;10.65;;;20.50;99.90;;;;;;4955257;28;20125;-68
2022/06/26 10:18:09;;;;;;;18.92;10.82;;;20.50;99.90;;;;;;4959631;28;20035;-70
2022/06/26 10:20:37;;;;;;;21.67;11.30;;;20.50;99.90;;;;;;4980177;28;20042;-70
2022/06/26 10:23:03;;;;;;;26.75;11.35;;;20.50;99.90;;;;;;4956696;28;20555;-69
2022/06/26 10:25:30;;;;;;;18.63;10.15;;;20.50;99.90;;;;;;4942190;28;20070;-69
2022/06/26 10:27:57;;;;;;;19.30;10.90;;;20.60;99.90;;;;;;4976980;28;20043;-70
2022/06/26 10:30:25;;;;;;;21.52;10.43;;;20.60;99.90;;;;;;4965021;28;20520;-69
2022/06/26 10:33:10;;;;;;;17.15;10.32;;;20.70;99.90;;;;;;4960752;28;20295;-69
2022/06/26 10:35:42;;;;;;;20.67;11.10;;;20.80;99.90;;;;;;4957993;28;20055;-69
2022/06/26 10:38:24;;;;;;;19.43;10.63;;;20.80;99.90;;;;;;4955518;28;20528;-68
2022/06/26 10:43:59;;;;;;;19.60;11.05;;;21.20;99.90;;;;;;4953718;28;19938;-67
2022/06/26 10:46:25;;;;;;;17.85;10.73;;;21.40;99.90;;;;;;4976692;28;20050;-67
2022/06/26 10:48:53;;;;;;;19.38;11.45;;;21.60;99.90;;;;;;4954703;28;20132;-68
2022/06/26 10:51:28;;;;;;;20.00;11.48;;;21.70;99.90;;;;;;4957800;28;20039;-69
2022/06/26 10:53:54;;;;;;;19.17;10.52;;;21.80;99.90;;;;;;4958469;28;21869;-68
2022/06/26 10:56:20;;;;;;;16.15;10.77;;;21.80;99.90;;;;;;4943780;28;20389;-70
2022/06/26 10:58:48;;;;;;;16.60;9.25;;;21.80;99.90;;;;;;4956119;28;20034;-68
2022/06/26 11:01:14;;;;;;;20.08;10.95;;;21.90;99.90;;;;;;4964789;28;20121;-68
2022/06/26 11:03:42;;;;;;;18.45;11.02;;;21.80;99.90;;;;;;4959182;28;20046;-68
2022/06/26 11:06:09;;;;;;;19.13;10.55;;;21.70;99.90;;;;;;4960012;28;20050;-69
2022/06/26 11:08:38;;;;;;;23.02;11.43;;;21.70;99.90;;;;;;4958673;28;20572;-69
2022/06/26 11:11:34;;;;;;;20.30;11.63;;;21.50;99.90;;;;;;4959002;28;20051;-68
2022/06/26 11:14:05;;;;;;;19.67;12.10;;;21.30;99.90;;;;;;4941408;28;20378;-67
2022/06/26 11:16:38;;;;;;;19.00;11.30;;;21.30;99.90;;;;;;4978766;28;20057;-67
2022/06/26 11:19:06;;;;;;;17.40;11.25;;;21.40;99.90;;;;;;4973554;28;20030;-67
2022/06/26 11:21:34;;;;;;;22.73;12.20;;;21.40;99.90;;;;;;4975686;28;20249;-67
2022/06/26 11:24:01;;;;;;;18.38;11.70;;;21.60;99.90;;;;;;4955908;28;20047;-67
2022/06/26 11:26:27;;;;;;;19.25;11.27;;;21.60;99.90;;;;;;4962163;28;20037;-67
2022/06/26 11:29:00;;;;;;;16.70;11.07;;;21.70;99.90;;;;;;4958070;28;20452;-67
2022/06/26 11:31:29;;;;;;;20.73;11.00;;;21.60;99.90;;;;;;4963269;28;20177;-68
2022/06/26 11:34:06;;;;;;;19.95;10.27;;;21.60;99.90;;;;;;4961964;28;20143;-68
2022/06/26 11:36:31;;;;;;;18.83;10.93;;;21.60;99.90;;;;;;4965196;28;20162;-68
2022/06/26 11:38:57;;;;;;;21.48;10.75;;;21.50;99.90;;;;;;4963453;28;20122;-68
2022/06/26 11:41:24;;;;;;;15.40;9.45;;;21.40;99.90;;;;;;4966844;28;20041;-69
2022/06/26 11:43:56;;;;;;;16.52;9.57;;;21.40;99.90;;;;;;4964249;28;20038;-68
2022/06/26 11:46:23;;;;;;;18.52;8.95;;;21.20;99.90;;;;;;4960115;28;20129;-68
2022/06/26 11:48:50;;;;;;;16.45;9.77;;;21.20;99.90;;;;;;4965165;28;20129;-67
2022/06/26 11:51:17;;;;;;;22.00;10.48;;;21.30;99.90;;;;;;4963344;28;20081;-67
2022/06/26 11:53:45;;;;;;;22.08;9.95;;;21.30;99.90;;;;;;4980919;28;20038;-68
2022/06/26 11:56:21;;;;;;;22.90;10.73;;;21.30;99.90;;;;;;4963378;28;20097;-69
2022/06/26 11:58:49;;;;;;;23.80;10.35;;;21.40;99.90;;;;;;4979941;28;20147;-67
2022/06/26 12:01:14;;;;;;;18.45;11.02;;;21.50;99.90;;;;;;4947431;28;20077;-68
2022/06/26 12:03:43;;;;;;;21.45;9.75;;;21.40;99.90;;;;;;4943961;28;20050;-70
2022/06/26 12:06:09;;;;;;;18.85;10.45;;;21.40;99.90;;;;;;4965504;28;20043;-69
2022/06/26 12:08:35;;;;;;;16.33;9.88;;;21.30;99.90;;;;;;4962304;28;20054;-69
2022/06/26 12:11:01;;;;;;;16.77;10.10;;;21.40;99.90;;;;;;4964665;28;20050;-67
2022/06/26 12:13:31;;;;;;;17.73;10.00;;;21.50;99.90;;;;;;4976489;28;20560;-67
2022/06/26 12:16:15;;;;;;;16.17;9.80;;;21.70;99.90;;;;;;4975731;28;20501;-68
2022/06/26 12:18:42;;;;;;;17.15;9.70;;;21.80;99.90;;;;;;4957802;28;20039;-68
2022/06/26 12:21:15;;;;;;;17.73;10.07;;;21.80;99.90;;;;;;4961279;28;20038;-68
2022/06/26 12:23:43;;;;;;;20.55;11.00;;;21.80;99.90;;;;;;4956535;28;20052;-67
2022/06/26 12:26:10;;;;;;;21.52;10.95;;;21.90;99.90;;;;;;4969165;28;20054;-68
2022/06/26 12:28:58;;;;;;;18.08;10.65;;;21.90;99.90;;;;;;4967908;28;20053;-68
2022/06/26 12:31:24;;;;;;;25.88;11.38;;;21.80;99.90;;;;;;4956062;28;20121;-68
2022/06/26 12:33:50;;;;;;;18.80;10.88;;;21.80;99.90;;;;;;4955780;28;20113;-67
2022/06/26 12:36:16;;;;;;;22.20;10.57;;;21.70;99.90;;;;;;4955308;28;20077;-67
2022/06/26 12:38:43;;;;;;;20.08;10.88;;;21.80;99.90;;;;;;4953047;28;20070;-67
2022/06/26 12:41:18;;;;;;;17.98;9.98;;;21.80;99.90;;;;;;4954899;28;20050;-68
2022/06/26 12:43:50;;;;;;;14.90;10.35;;;21.80;99.90;;;;;;4956079;28;20049;-67